»·PEaware :: N74SW KSAN-L08

N74SW :: KSAN-L08

FLIGHT INFORMATION

Flight Status: Arrived
Operator: Privately registered:
United States
More flights under this callsign
Pilot: Scott W. (31825)
Aircraft: CESSNA 172 SKYHAWK
(C172)
More flights by this aircraft type
Origin: KSAN San Diego Intl-Lindbergh
United States
Destination: L08 Borrego Valley
United States
More flights between these airports :: More routes between these airports
Route:
File this flight plan on PilotEdge
Remarks:
Altitude:
(Current/Filed)
7,500ft
Speed:
(Current/Filed)
100kts
Departed: 22-Feb-21 04:07 PM
Arrived: 22-Feb-21 04:50 PM
Distance/Time
Traveled:
54nm/0:43
Distance/Time
To Go:
Arrived

Flight Plot

Page will automatically refresh every two minutes.

Flight plan parsing failed; only flown route is shown


Map Options




Map Legend


Flown Route
Filed Route
Departure Airport
Arrival Airport
Navaid (VOR, NDB)
Fix

Horizontal Profiles

Position Reports

Time Latitude Longitude Heading Altitude Ground
Speed
22-Feb-21 15:36 32.733420 -117.178486 17 20ft 0kts
22-Feb-21 15:37 32.733420 -117.178486 17 20ft 0kts
22-Feb-21 15:38 32.733420 -117.178486 17 20ft 0kts
22-Feb-21 15:39 32.733420 -117.178486 17 20ft 0kts
22-Feb-21 15:40 32.733420 -117.178486 17 20ft 0kts
22-Feb-21 15:41 32.733420 -117.178486 17 20ft 0kts
22-Feb-21 15:42 32.733420 -117.178486 17 20ft 0kts
22-Feb-21 15:43 32.733420 -117.178486 17 20ft 0kts
22-Feb-21 15:44 32.733420 -117.178486 17 20ft 0kts
22-Feb-21 15:45 32.733420 -117.178486 17 20ft 0kts
22-Feb-21 15:46 32.733420 -117.178486 17 20ft 0kts
22-Feb-21 15:47 32.733420 -117.178486 17 20ft 0kts
22-Feb-21 15:49 32.733420 -117.178486 17 20ft 0kts
22-Feb-21 15:50 32.733420 -117.178486 17 20ft 0kts
22-Feb-21 15:51 32.733420 -117.178486 17 20ft 0kts
22-Feb-21 15:52 32.733420 -117.178486 17 20ft 0kts
22-Feb-21 15:53 32.733420 -117.178486 17 20ft 0kts
22-Feb-21 15:54 32.733420 -117.178486 17 20ft 0kts
22-Feb-21 15:55 32.733420 -117.178486 17 20ft 0kts
22-Feb-21 15:56 32.733420 -117.178486 17 20ft 0kts
22-Feb-21 15:57 32.733420 -117.178486 17 20ft 0kts
22-Feb-21 15:58 32.733420 -117.178486 17 20ft 0kts
22-Feb-21 15:59 32.733420 -117.178486 16 20ft 0kts
22-Feb-21 16:00 32.733420 -117.178486 17 20ft 0kts
22-Feb-21 16:01 32.733601 -117.179130 253 20ft 12kts
22-Feb-21 16:02 32.731492 -117.176376 106 20ft 17kts
22-Feb-21 16:03 32.730971 -117.175565 142 20ft 0kts
22-Feb-21 16:04 32.730939 -117.175536 142 20ft 0kts
22-Feb-21 16:05 32.730520 -117.177097 287 20ft 19kts
22-Feb-21 16:06 32.736009 -117.198881 298 777ft 77kts
22-Feb-21 16:07 32.748507 -117.219607 301 1796ft 75kts
22-Feb-21 16:08 32.761464 -117.241058 302 1872ft 79kts
22-Feb-21 16:09 32.774698 -117.263200 302 1865ft 81kts
22-Feb-21 16:10 32.787640 -117.285046 302 1889ft 79kts
22-Feb-21 16:11 32.801748 -117.305694 334 1961ft 79kts
22-Feb-21 16:12 32.808729 -117.280022 85 1980ft 102kts
22-Feb-21 16:13 32.805915 -117.246362 104 1825ft 109kts
22-Feb-21 16:14 32.799952 -117.211613 94 2312ft 107kts
22-Feb-21 16:15 32.797921 -117.176758 88 2891ft 103kts
22-Feb-21 16:16 32.797276 -117.142988 82 3442ft 101kts
22-Feb-21 16:17 32.801604 -117.109429 75 3648ft 107kts
22-Feb-21 16:18 32.807604 -117.073518 76 3637ft 114kts
22-Feb-21 16:20 32.813886 -117.035913 76 3369ft 118kts
22-Feb-21 16:21 32.820299 -116.998511 75 3343ft 115kts
22-Feb-21 16:22 32.827474 -116.960841 73 3428ft 115kts
22-Feb-21 16:23 32.839212 -116.922115 64 3761ft 115kts
22-Feb-21 16:24 32.849649 -116.886546 65 4575ft 102kts
22-Feb-21 16:25 32.858388 -116.852542 68 5250ft 102kts
22-Feb-21 16:26 32.867425 -116.819563 66 5881ft 103kts
22-Feb-21 16:27 32.884212 -116.793120 33 6396ft 106kts
22-Feb-21 16:28 32.909311 -116.774436 32 6766ft 108kts
22-Feb-21 16:29 32.937211 -116.759794 24 7078ft 110kts
22-Feb-21 16:30 32.965029 -116.742998 31 7366ft 112kts
22-Feb-21 16:31 32.993715 -116.727480 20 7631ft 111kts
22-Feb-21 16:32 33.023087 -116.710972 32 7535ft 116kts
22-Feb-21 16:33 33.049430 -116.688951 45 7505ft 114kts
22-Feb-21 16:34 33.072808 -116.662068 45 7491ft 114kts
22-Feb-21 16:35 33.092897 -116.632485 82 7455ft 110kts
22-Feb-21 16:36 33.095045 -116.596148 86 7444ft 109kts
22-Feb-21 16:37 33.096740 -116.559346 87 7186ft 110kts
22-Feb-21 16:38 33.098112 -116.522566 87 6757ft 110kts
22-Feb-21 16:39 33.099375 -116.484498 84 6232ft 118kts
22-Feb-21 16:40 33.111652 -116.446743 63 5691ft 119kts
22-Feb-21 16:40 33.123580 -116.416546 63 5189ft 120kts
22-Feb-21 16:42 33.140463 -116.374359 63 4249ft 116kts
22-Feb-21 16:43 33.153326 -116.338311 59 3516ft 115kts
22-Feb-21 16:44 33.180826 -116.323019 22 2673ft 111kts
22-Feb-21 16:44 33.205644 -116.317513 356 2156ft 100kts
22-Feb-21 16:46 33.236332 -116.313372 33 1705ft 95kts
22-Feb-21 16:46 33.240887 -116.289078 83 1458ft 85kts
22-Feb-21 16:47 33.258261 -116.284470 298 1130ft 78kts
22-Feb-21 16:49 33.259177 -116.309779 267 614ft 53kts
22-Feb-21 16:49 33.258995 -116.321165 268 525ft 16kts
22-Feb-21 16:50 33.257759 -116.323851 279 523ft 7kts
22-Feb-21 16:51 33.257612 -116.324201 179 523ft 0kts
22-Feb-21 16:52 33.257700 -116.324203 179 523ft 1kts
22-Feb-21 16:53 33.257752 -116.324205 177 523ft 0kts
22-Feb-21 16:54 33.257752 -116.324205 177 523ft 0kts

Navigation Log

Ident Type
Flight plan parsing failed, navigation log unavailable